Latest Coastal Weather Observations for Low Isles

IDQ60701

Issued at 12:42 am EST Friday 5 March 2021 (issued every 10 minutes, with the page automatically refreshed every 10 minutes)

About coastal observations | Map of coastal stations | Coastal observations for QLD | Marine services | Other Formats
Station Details ID: 031037 Name: LOW ISLES LIGHTHOUSE Lat: -16.38 Lon: 145.56 Height: 2.9 m
Data from the previous 72 hours. | See also: Recent months at Low Isles
Date/Time
EST
Wind Sea
Height
m
Swell Vis
km
Cloud Weather Temp
°C
Press
MSL
hPa
Rain since
9am
mm
Dir  Spd
kts
Gust
kts
Height
m
Period
s
Dir
05/12:30am ESE 8 10 - - - - - - - 27.2 1004.3 0.0
05/12:00am E 3 5 - - - - - - - 26.9 1004.7 0.0
 
Date/Time
EST
Wind Sea
Height
m
Swell Vis
km
Cloud Weather Temp
°C
Press
MSL
hPa
Rain since
9am
mm
Dir  Spd
kts
Gust
kts
Height
m
Period
s
Dir
04/11:30pm E 2 4 - - - - - - - 26.4 1004.7 0.0
04/11:00pm E 3 5 - - - - - - - 26.2 1004.7 0.0
04/10:30pm ESE 7 8 - - - - - - - 26.9 1004.5 0.0
04/10:00pm ESE 6 8 - - - - - - - 26.9 1004.3 0.0
04/09:30pm ESE 7 8 - - - - - - - 27.1 1004.3 0.0
04/09:00pm ESE 9 10 - - - - - - - 27.7 1004.0 0.0
04/08:30pm SE 9 11 - - - - - - - 28.2 1003.8 0.0
04/08:00pm SE 11 13 - - - - - - - 28.4 1003.6 0.0
04/07:30pm SE 17 20 - - - - - - - 28.8 1002.8 0.0
04/07:00pm SE 21 23 - - - - - - - 28.7 1002.4 0.0
04/06:30pm SE 21 26 - - - - - - - 28.8 1001.9 0.0
04/06:00pm ESE 24 29 - - - - - - - 28.9 1001.5 0.0
04/05:30pm ESE 23 28 - - - - - - - 28.8 1001.2 0.0
04/05:00pm ESE 24 31 - - - - - - - 28.8 1000.8 0.0
04/04:30pm ESE 23 28 - - - - - - - 28.9 1000.4 0.0
04/04:00pm ESE 20 28 - - - - - - - 29.3 1000.2 0.0
04/03:30pm ESE 18 24 - - - - - - - 30.5 1000.1 0.0
04/03:00pm ESE 13 16 - - - - - - - 31.7 999.9 0.0
04/02:30pm ESE 13 17 - - - - - - - 30.7 1000.1 0.0
04/02:00pm ESE 13 16 - - - - - - - 30.1 1000.6 0.0
04/01:30pm ESE 12 15 - - - - - - - 30.2 1001.0 0.0
04/01:00pm ESE 12 14 - - - - - - - 29.5 1001.4 0.0
04/12:30pm ESE 10 12 - - - - - - - 29.7 1001.9 0.0
04/12:00pm SE 8 10 - - - - - - - 29.8 1002.3 0.0
04/11:30am SE 8 9 - - - - - - - 29.4 1002.4 0.0
04/11:00am SSE 9 10 - - - - - - - 29.1 1002.5 0.0
04/10:30am SSE 11 13 - - - - - - - 29.0 1003.0 0.0
04/10:00am S 11 13 - - - - - - - 28.8 1003.1 0.0
04/09:30am S 13 15 - - - - - - - 28.4 1003.1 0.0
04/09:00am S 16 19 - - - - - - - 28.2 1003.0 0.2
04/08:30am S 16 19 - - - - - - - 27.9 1003.0 0.2
04/08:00am S 16 18 - - - - - - - 27.9 1002.7 0.2
04/07:30am S 18 21 - - - - - - - 27.9 1002.3 0.2
04/07:00am S 17 19 - - - - - - - 28.0 1002.0 0.2
04/06:30am SSW 15 18 - - - - - - - 27.9 1001.5 0.2
04/06:00am S 15 18 - - - - - - - 27.9 1001.3 0.2
04/05:30am SSW 14 16 - - - - - - - 27.9 1001.1 0.2
04/05:00am SSW 14 16 - - - - - - - 27.8 1000.8 0.2
04/04:30am S 14 16 - - - - - - - 27.9 1000.8 0.2
04/04:00am S 15 17 - - - - - - - 28.0 1000.6 0.2
04/03:30am S 17 19 - - - - - - - 27.9 1000.5 0.2
04/03:00am SSW 15 18 - - - - - - - 28.0 1000.4 0.2
04/02:30am SSW 13 15 - - - - - - - 28.0 1000.6 0.2
04/02:00am SSW 14 16 - - - - - - - 28.0 1000.9 0.2
04/01:30am SSW 15 17 - - - - - - - 27.9 1001.1 0.2
04/01:00am SSW 13 15 - - - - - - - 27.9 1001.3 0.2
04/12:30am S 12 14 - - - - - - - 27.9 1001.8 0.2
04/12:00am SSW 13 15 - - - - - - - 28.0 1002.2 0.2
 
Date/Time
EST
Wind Sea
Height
m
Swell Vis
km
Cloud Weather Temp
°C
Press
MSL
hPa
Rain since
9am
mm
Dir  Spd
kts
Gust
kts
Height
m
Period
s
Dir
03/11:30pm SSW 11 12 - - - - - - - 28.1 1002.4 0.2
03/11:00pm SSW 8 9 - - - - - - - 28.0 1002.6 0.2
03/10:30pm S 9 12 - - - - - - - 27.9 1003.0 0.2
03/10:00pm SSE 17 20 - - - - - - - 28.3 1002.7 0.2
03/09:30pm SE 21 24 - - - - - - - 28.5 1002.9 0.2
03/09:00pm SE 25 29 - - - - - - - 28.7 1002.4 0.2
03/08:30pm SSE 21 24 - - - - - - - 28.6 1002.1 0.2
03/08:00pm SSE 19 22 - - - - - - - 28.6 1001.9 0.2
03/07:30pm SSE 21 24 - - - - - - - 28.8 1001.8 0.2
03/07:00pm SSE 22 28 - - - - - - - 29.2 1001.7 0.2
03/06:52pm SSE 13 23 - - - - - - - 28.8 1001.7 0.2
03/06:30pm S 10 12 - - - - - - - 28.2 1001.3 0.2
03/06:00pm SSE 12 14 - - - - - - - 28.3 1001.0 0.2
03/05:30pm SSE 13 15 - - - - - - - 28.6 1000.6 0.2
03/05:00pm SSE 17 19 - - - - - - - 28.8 1000.6 0.2
03/04:30pm SSE 16 18 - - - - - - - 28.6 1000.3 0.2
03/04:00pm SSE 15 17 - - - - - - - 28.5 1000.2 0.2
03/03:30pm SSE 14 15 - - - - - - - 28.6 1000.1 0.2
03/03:00pm SSE 14 17 - - - - - - - 28.7 1000.1 0.2
03/02:30pm SSW 13 15 - - - - - - - 28.5 1000.4 0.2
03/02:00pm SSE 18 24 - - - - - - - 28.6 1001.0 0.2
03/01:30pm SSE 18 22 - - - - - - - 28.5 1001.5 0.2
03/01:00pm SSE 16 23 - - - - - - - 28.6 1001.8 0.2
03/12:30pm SSE 13 15 - - - - - - - 28.3 1002.0 0.2
03/12:00pm S 13 16 - - - - - - - 28.1 1001.9 0.2
03/11:30am S 15 24 - - - - - - - 28.3 1002.6 0.2
03/11:00am S 14 17 - - - - - - - 27.9 1002.7 0.2
03/10:30am S 14 18 - - - - - - - 27.7 1003.0 0.2
03/10:00am SSE 18 21 - - - - - - - 27.1 1003.1 0.2
03/09:30am SE 12 16 - - - - - - - 25.5 1003.6 0.2
03/09:00am SE 15 19 - - - - - - Rain 25.0 1003.9 8.4
03/08:30am SE 11 13 - - - - - - - 25.1 1003.1 8.0
03/08:00am ESE 13 15 - - - - - - - 25.2 1003.2 8.0
03/07:30am SSE 13 15 - - - - - - - 25.5 1002.7 7.8
03/07:00am SSE 19 21 - - - - - - - 25.1 1002.8 7.8
03/06:30am SSE 16 19 - - - - - - - 24.8 1002.9 7.8
03/06:09am SE 20 26 - - - - - - - 26.6 1002.5 7.2
03/06:00am S 18 22 - - - - - - - 27.1 1002.1 7.2
03/05:30am SSW 20 23 - - - - - - - 26.9 1001.4 7.2
03/05:00am SSW 18 22 - - - - - - - 26.8 1001.2 7.2
03/04:30am SSW 18 20 - - - - - - - 26.7 1001.3 7.2
03/04:00am SSW 17 19 - - - - - - - 26.6 1001.4 7.2
03/03:30am SSW 18 20 - - - - - - - 26.6 1001.4 7.2
03/03:00am SSW 16 17 - - - - - - - 26.4 1001.5 7.2
03/02:30am SSW 12 16 - - - - - - - 25.9 1001.9 7.2
03/02:00am S 13 16 - - - - - - - 25.9 1001.9 7.2
03/01:30am SSE 16 18 - - - - - - - 25.6 1002.6 7.0
03/01:12am SSE 16 24 - - - - - - - 25.6 1003.2 6.6
03/01:00am S 14 17 - - - - - - - 25.2 1003.3 6.0
03/12:30am SW 15 17 - - - - - - - 26.1 1003.3 4.0
03/12:00am SSW 15 16 - - - - - - Recent precip. 26.0 1003.5 3.4
 
Date/Time
EST
Wind Sea
Height
m
Swell Vis
km
Cloud Weather Temp
°C
Press
MSL
hPa
Rain since
9am
mm
Dir  Spd
kts
Gust
kts
Height
m
Period
s
Dir
02/11:30pm S 15 17 - - - - - - - 25.9 1004.1 2.6
02/11:18pm S 17 20 - - - - - - - 25.9 1004.2 2.0
02/11:00pm SSE 22 26 - - - - - - - 26.4 1004.4 1.2
02/10:30pm SE 21 27 - - - - - - - 26.3 1004.6 0.8
02/10:00pm SE 21 24 - - - - - - - 27.1 1004.4 0.6
02/09:30pm SE 24 27 - - - - - - - 27.0 1004.0 0.6
02/09:00pm SE 23 25 - - - - - - - 26.6 1003.7 0.6
02/08:30pm SE 25 31 - - - - - - - 26.7 1003.5 0.6
02/08:00pm SSE 22 27 - - - - - - - 28.0 1003.1 0.6
02/07:30pm SE 23 27 - - - - - - - 27.9 1002.9 0.6
02/07:00pm SSE 23 27 - - - - - - - 27.7 1002.6 0.6
02/06:30pm SE 19 22 - - - - - - - 27.6 1002.3 0.6
02/06:00pm SSE 15 18 - - - - - - - 26.8 1001.8 0.6
02/05:30pm SE 15 19 - - - - - - - 27.3 1001.8 0.6
02/05:00pm SSE 12 14 - - - - - - - 27.1 1001.2 0.6
02/04:30pm SSE 13 18 - - - - - - - 26.1 1001.3 0.6
02/04:00pm SSW 17 19 - - - - - - - 27.0 1001.3 0.2
02/03:30pm SSW 19 21 - - - - - - - 27.2 1001.2 0.2
02/03:00pm SSW 22 26 - - - - - - - 27.3 1001.1 0.2
02/02:47pm SSW 17 23 - - - - - - - 27.3 1001.1 0.2
02/02:30pm SSE 11 13 - - - - - - - 27.5 1001.1 0.2
02/02:00pm SSE 13 15 - - - - - - - 26.8 1001.4 0.2
02/01:30pm SE 13 17 - - - - - - - 27.6 1001.9 0.0
02/01:00pm SSE 13 16 - - - - - - - 28.0 1001.9 0.0
02/12:30pm S 13 15 - - - - - - - 27.7 1002.2 0.0
02/12:00pm SSW 14 16 - - - - - - - 27.4 1002.5 0.0
02/11:30am SSE 15 17 - - - - - - - 27.2 1003.2 0.0
02/11:00am S 15 19 - - - - - - - 26.9 1003.3 0.0
02/10:30am S 16 19 - - - - - - - 26.8 1003.6 0.0
02/10:00am S 15 17 - - - - - - - 27.0 1003.7 0.0
02/09:30am S 19 22 - - - - - - - 26.6 1003.8 0.0
02/09:00am S 21 24 - - - - - - - 26.5 1003.6 30.8
02/08:30am S 20 23 - - - - - - - 26.1 1003.6 30.8
02/08:00am SSE 17 25 - - - - - - - 26.2 1003.4 30.8
02/07:59am SSE 18 28 - - - - - - - 26.2 1003.4 30.8
02/07:47am S 19 25 - - - - - - - 26.7 1003.5 30.8
02/07:30am S 19 23 - - - - - - - 25.7 1003.1 30.8
02/07:00am SSW 21 26 - - - - - - - 26.1 1002.4 30.8
02/06:30am SSW 23 26 - - - - - - - 26.0 1002.0 30.8
02/06:00am SSW 22 26 - - - - - - - 25.5 1001.8 30.8
02/05:30am SSW 23 25 - - - - - - - 25.6 1001.7 30.8
02/05:00am SSW 25 29 - - - - - - - 24.7 1001.4 30.8
02/04:30am SSW 24 27 - - - - - - - 24.6 1001.2 30.8
02/04:00am S 18 20 - - - - - - - 24.1 1001.6 30.6
02/03:30am S 21 26 - - - - - - - 24.5 1001.9 29.4
02/03:00am S 20 23 - - - - - - Rain 25.0 1001.6 28.6
02/02:30am S 17 20 - - - - - - - 25.0 1001.6 28.2
02/02:00am SSE 19 22 - - - - - - - 25.1 1002.1 27.8
02/01:53am SSE 18 21 - - - - - - - 25.3 1002.0 27.6
02/01:30am S 21 24 - - - - - - - 24.5 1001.9 26.8
02/01:00am SSW 21 25 - - - - - - - 24.6 1001.9 26.6

Other formats

Comma delimited format used in spreadsheet applications
http://www.bom.gov.au/fwo/IDQ60701/IDQ60701.94285.axf

JavaScript Object Notation format (JSON) in row-major order
http://www.bom.gov.au/fwo/IDQ60701/IDQ60701.94285.json

Data quality

Most of these data are generated automatically and are frequently updated. Quality checks on data are not normally performed. It is possible for incorrect values to appear. Refer to information at About Latest Weather Observations and please check the disclaimer before using these data.